Time;durP1;ratioP1;P1;durP2;ratioP2;P2;SDS_P1;SDS_P2;PMS_P1;PMS_P2;Temp;Humidity;BMP_temperature;BMP_pressure;BME280_temperature;BME280_humidity;BME280_pressure;Samples;Min_cycle;Max_cycle;Signal;HPM_P1;HPM_P2
2023/03/06 00:01:01;;;;;;;;;;;2.70;99.90;;;;;;5055126;28;19916;-55
2023/03/06 00:03:27;;;;;;;;;;;2.70;99.90;;;;;;5054456;28;20383;-55
2023/03/06 00:05:54;;;;;;;;;;;2.70;99.90;;;;;;5055080;28;19917;-55
2023/03/06 00:08:20;;;;;;;;;;;2.70;99.90;;;;;;5055299;28;19941;-56
2023/03/06 00:10:45;;;;;;;;;;;2.70;99.90;;;;;;5054303;28;19956;-55
2023/03/06 00:13:11;;;;;;;;;;;2.70;99.90;;;;;;5055037;28;19909;-54
2023/03/06 00:15:37;;;;;;;;;;;2.70;99.90;;;;;;5054915;28;19908;-54
2023/03/06 00:18:04;;;;;;;;;;;2.70;99.90;;;;;;5054282;28;19909;-55
2023/03/06 00:20:29;;;;;;;;;;;2.70;99.90;;;;;;5055172;28;19988;-55
2023/03/06 00:22:55;;;;;;;;;;;2.70;99.90;;;;;;5054784;28;20421;-55
2023/03/06 00:25:21;;;;;;;;;;;2.80;99.90;;;;;;5053933;28;19960;-56
2023/03/06 00:27:47;;;;;;;;;;;2.80;99.90;;;;;;5070705;28;19954;-54
2023/03/06 00:30:14;;;;;;;;;;;2.80;99.90;;;;;;5074072;28;19912;-55
2023/03/06 00:32:39;;;;;;;;;;;2.80;99.90;;;;;;5074785;28;19947;-55
2023/03/06 00:35:05;;;;;;;;;;;2.90;99.90;;;;;;5074610;28;20015;-56
2023/03/06 00:37:30;;;;;;;;;;;2.80;99.90;;;;;;5073953;28;19999;-55
2023/03/06 00:39:56;;;;;;;;;;;2.80;99.90;;;;;;5074473;28;20374;-55
2023/03/06 00:42:21;;;;;;;;;;;2.90;99.90;;;;;;5074507;28;19961;-55
2023/03/06 00:44:47;;;;;;;;;;;2.90;99.90;;;;;;5073616;28;20355;-56
2023/03/06 00:47:16;;;;;;;;;;;2.80;99.90;;;;;;5074353;28;19912;-56
2023/03/06 00:49:42;;;;;;;;;;;2.90;99.90;;;;;;5073556;28;20359;-55
2023/03/06 00:52:07;;;;;;;;;;;2.80;99.90;;;;;;5073611;28;19915;-55
2023/03/06 00:54:33;;;;;;;;;;;2.90;99.90;;;;;;5074332;28;19908;-55
2023/03/06 00:56:58;;;;;;;;;;;2.90;99.90;;;;;;5074136;28;19939;-54
2023/03/06 00:59:24;;;;;;;;;;;2.90;99.90;;;;;;5073168;28;19924;-55
2023/03/06 01:01:49;;;;;;;;;;;2.90;99.90;;;;;;5074204;28;19919;-55
2023/03/06 01:04:14;;;;;;;;;;;2.90;99.90;;;;;;5074025;28;19982;-55
2023/03/06 01:06:40;;;;;;;;;;;2.90;99.90;;;;;;5073135;28;19923;-54
2023/03/06 01:09:05;;;;;;;;;;;2.90;99.90;;;;;;5073884;28;19915;-55
2023/03/06 01:11:31;;;;;;;;;;;3.00;99.90;;;;;;5073909;28;19908;-55
2023/03/06 01:13:57;;;;;;;;;;;2.90;99.90;;;;;;5072453;28;19915;-55
2023/03/06 01:16:23;;;;;;;;;;;2.90;99.90;;;;;;5073766;28;20379;-54
2023/03/06 01:18:49;;;;;;;;;;;3.00;99.90;;;;;;5065699;28;19958;-55
2023/03/06 01:21:14;;;;;;;;;;;2.90;99.90;;;;;;5064403;28;19969;-54
2023/03/06 01:23:40;;;;;;;;;;;2.90;99.90;;;;;;5073668;28;19916;-54
2023/03/06 01:26:05;;;;;;;;;;;3.00;99.90;;;;;;5073461;28;20042;-56
2023/03/06 01:28:32;;;;;;;;;;;2.90;99.90;;;;;;5072666;28;19909;-56
2023/03/06 01:30:59;;;;;;;;;;;3.00;99.90;;;;;;5073529;28;19916;-58
2023/03/06 01:33:24;;;;;;;;;;;2.90;99.90;;;;;;5072673;28;19908;-55
2023/03/06 01:35:50;;;;;;;;;;;3.00;99.90;;;;;;5073485;28;19991;-54
2023/03/06 01:38:15;;;;;;;;;;;2.90;99.90;;;;;;5073312;28;19916;-56
2023/03/06 01:40:41;;;;;;;;;;;2.90;99.90;;;;;;5072527;28;19998;-55
2023/03/06 01:43:27;;;;;;;;;;;2.90;99.90;;;;;;5073140;28;19912;-53
2023/03/06 01:46:16;;;;;;;;;;;2.90;99.90;;;;;;5073408;28;20007;-55
2023/03/06 01:48:42;;;;;;;;;;;3.00;99.90;;;;;;5065743;28;19913;-56
2023/03/06 01:51:08;;;;;;;;;;;3.00;99.90;;;;;;5053125;28;20063;-54
2023/03/06 01:53:33;;;;;;;;;;;3.00;99.90;;;;;;5053307;28;20467;-54
2023/03/06 01:55:59;;;;;;;;;;;3.00;99.90;;;;;;5052322;28;20414;-53
2023/03/06 01:58:24;;;;;;;;;;;3.00;99.90;;;;;;5052805;28;19967;-54
2023/03/06 02:00:50;;;;;;;;;;;3.00;99.90;;;;;;5053101;28;19909;-55
2023/03/06 02:03:19;;;;;;;;;;;3.00;99.90;;;;;;5052206;28;19913;-55
2023/03/06 02:05:45;;;;;;;;;;;3.00;99.90;;;;;;5052919;28;19924;-55
2023/03/06 02:08:12;;;;;;;;;;;3.00;99.90;;;;;;5052767;28;19913;-56
2023/03/06 02:10:39;;;;;;;;;;;3.00;99.90;;;;;;5052214;28;19916;-53
2023/03/06 02:13:04;;;;;;;;;;;3.00;99.90;;;;;;5052748;28;19974;-54
2023/03/06 02:15:30;;;;;;;;;;;3.00;99.90;;;;;;5053152;28;19913;-54
2023/03/06 02:17:55;;;;;;;;;;;3.00;99.90;;;;;;5052020;28;19915;-55
2023/03/06 02:20:27;;;;;;;;;;;3.00;99.90;;;;;;5053770;28;19924;-56
2023/03/06 02:23:02;;;;;;;;;;;3.00;99.90;;;;;;5052010;28;20461;-56
2023/03/06 02:25:38;;;;;;;;;;;3.10;99.90;;;;;;5052242;28;20356;-55
2023/03/06 02:28:05;;;;;;;;;;;3.00;99.90;;;;;;5052778;28;20344;-55
2023/03/06 02:30:31;;;;;;;;;;;3.00;99.90;;;;;;5052060;28;19916;-55
2023/03/06 02:32:57;;;;;;;;;;;3.10;99.90;;;;;;5052483;28;19909;-56
2023/03/06 02:35:24;;;;;;;;;;;3.10;99.90;;;;;;5052865;28;19940;-55
2023/03/06 02:37:50;;;;;;;;;;;3.10;99.90;;;;;;5051876;28;19909;-54
2023/03/06 02:40:17;;;;;;;;;;;3.10;99.90;;;;;;5052564;28;20298;-54
2023/03/06 02:42:50;;;;;;;;;;;3.10;99.90;;;;;;5052646;28;19955;-55
2023/03/06 02:45:18;;;;;;;;;;;3.10;99.90;;;;;;5051671;28;19921;-58
2023/03/06 02:47:44;;;;;;;;;;;3.10;99.90;;;;;;5052553;28;19909;-55
2023/03/06 02:50:09;;;;;;;;;;;3.10;99.90;;;;;;5068980;28;19943;-55
2023/03/06 02:52:35;;;;;;;;;;;3.10;99.90;;;;;;5071426;28;19916;-55
2023/03/06 02:55:00;;;;;;;;;;;3.00;99.90;;;;;;5072636;28;19908;-55
2023/03/06 02:57:26;;;;;;;;;;;3.00;99.90;;;;;;5072422;28;19962;-58
2023/03/06 02:59:51;;;;;;;;;;;3.00;99.90;;;;;;5071496;28;20428;-54
2023/03/06 03:02:17;;;;;;;;;;;2.90;99.90;;;;;;5072006;28;19966;-56
2023/03/06 03:04:42;;;;;;;;;;;2.90;99.90;;;;;;5072447;28;19915;-54
2023/03/06 03:07:08;;;;;;;;;;;2.90;99.90;;;;;;5071606;28;19923;-55
2023/03/06 03:09:35;;;;;;;;;;;2.90;99.90;;;;;;5072526;28;19919;-55
2023/03/06 03:12:02;;;;;;;;;;;2.90;99.90;;;;;;5071522;28;19955;-54
2023/03/06 03:14:27;;;;;;;;;;;2.90;99.90;;;;;;5072301;28;20352;-54
2023/03/06 03:16:53;;;;;;;;;;;2.90;99.90;;;;;;5071162;28;19919;-53
2023/03/06 03:19:18;;;;;;;;;;;2.90;99.90;;;;;;5071040;28;19990;-56
2023/03/06 03:21:44;;;;;;;;;;;2.90;99.90;;;;;;5072197;28;19915;-54
2023/03/06 03:24:09;;;;;;;;;;;2.90;99.90;;;;;;5072247;28;20203;-55
2023/03/06 03:26:35;;;;;;;;;;;2.90;99.90;;;;;;5071443;28;19927;-56
2023/03/06 03:29:00;;;;;;;;;;;2.90;99.90;;;;;;5071949;28;19912;-52
2023/03/06 03:31:26;;;;;;;;;;;2.90;99.90;;;;;;5072134;28;19943;-54
2023/03/06 03:33:51;;;;;;;;;;;3.00;99.90;;;;;;5071382;28;19914;-53
2023/03/06 03:36:17;;;;;;;;;;;3.00;99.90;;;;;;5072035;28;20286;-55
2023/03/06 03:38:42;;;;;;;;;;;2.90;99.90;;;;;;5074899;28;19908;-54
2023/03/06 03:41:08;;;;;;;;;;;2.90;99.90;;;;;;5074828;28;19961;-51
2023/03/06 03:43:33;;;;;;;;;;;2.80;99.90;;;;;;5075744;28;19992;-52
2023/03/06 03:45:59;;;;;;;;;;;2.80;99.90;;;;;;5075388;28;19962;-51
2023/03/06 03:48:24;;;;;;;;;;;2.70;99.90;;;;;;5057073;28;19913;-52
2023/03/06 03:50:50;;;;;;;;;;;2.60;99.90;;;;;;5055614;28;19916;-51
2023/03/06 03:53:15;;;;;;;;;;;2.50;99.90;;;;;;5055390;28;19977;-53
2023/03/06 03:55:41;;;;;;;;;;;2.50;99.90;;;;;;5054660;28;19988;-50
2023/03/06 03:58:06;;;;;;;;;;;2.40;99.90;;;;;;5055087;28;19939;-52
2023/03/06 04:00:32;;;;;;;;;;;2.40;99.90;;;;;;5055373;28;19938;-56
2023/03/06 04:02:57;;;;;;;;;;;2.30;99.90;;;;;;5054481;28;19947;-51
2023/03/06 04:05:23;;;;;;;;;;;2.30;99.90;;;;;;5055180;28;19925;-52
2023/03/06 04:07:48;;;;;;;;;;;2.20;99.90;;;;;;5055137;28;19938;-51
2023/03/06 04:10:14;;;;;;;;;;;2.20;99.90;;;;;;5054409;28;19916;-51
2023/03/06 04:12:39;;;;;;;;;;;2.20;99.90;;;;;;5055225;28;19932;-52
2023/03/06 04:15:06;;;;;;;;;;;2.10;99.90;;;;;;5055112;28;19956;-51
2023/03/06 04:17:34;;;;;;;;;;;2.10;99.90;;;;;;5055763;28;19913;-52
2023/03/06 04:20:00;;;;;;;;;;;2.10;99.90;;;;;;5054854;28;20284;-53
2023/03/06 04:22:26;;;;;;;;;;;2.10;99.90;;;;;;5054170;28;19979;-55
2023/03/06 04:24:52;;;;;;;;;;;2.10;99.90;;;;;;5054960;28;20400;-54
2023/03/06 04:27:17;;;;;;;;;;;2.10;99.90;;;;;;5054583;28;19925;-53
2023/03/06 04:29:43;;;;;;;;;;;2.10;99.90;;;;;;5054139;28;19997;-53
2023/03/06 04:32:08;;;;;;;;;;;2.10;99.90;;;;;;5054752;28;20359;-52
2023/03/06 04:34:34;;;;;;;;;;;2.10;99.90;;;;;;5054806;28;20253;-53
2023/03/06 04:36:59;;;;;;;;;;;2.00;99.90;;;;;;5053933;28;19916;-54
2023/03/06 04:39:25;;;;;;;;;;;2.00;99.90;;;;;;5054695;28;19966;-54
2023/03/06 04:41:50;;;;;;;;;;;2.00;99.90;;;;;;5054510;28;19915;-52
2023/03/06 04:44:16;;;;;;;;;;;2.10;99.90;;;;;;5053900;28;19991;-53
2023/03/06 04:46:41;;;;;;;;;;;2.00;99.90;;;;;;5055761;28;20078;-53
2023/03/06 04:49:07;;;;;;;;;;;2.00;99.90;;;;;;5073540;28;19913;-53
2023/03/06 04:51:34;;;;;;;;;;;2.00;99.90;;;;;;5073466;28;19912;-53
2023/03/06 04:54:00;;;;;;;;;;;2.00;99.90;;;;;;5074161;28;19908;-56
2023/03/06 04:56:25;;;;;;;;;;;2.00;99.90;;;;;;5074188;28;19935;-53
2023/03/06 04:58:51;;;;;;;;;;;2.00;99.90;;;;;;5073215;28;19925;-54
2023/03/06 05:01:16;;;;;;;;;;;2.00;99.90;;;;;;5073997;28;20050;-54
2023/03/06 05:03:42;;;;;;;;;;;2.00;99.90;;;;;;5073736;28;19953;-53
2023/03/06 05:06:08;;;;;;;;;;;2.00;99.90;;;;;;5073221;28;19912;-53
2023/03/06 05:08:33;;;;;;;;;;;2.00;99.90;;;;;;5074099;28;19915;-53
2023/03/06 05:11:00;;;;;;;;;;;2.10;99.90;;;;;;5074130;28;19908;-53
2023/03/06 05:13:26;;;;;;;;;;;2.00;99.90;;;;;;5064043;28;19913;-53
2023/03/06 05:15:51;;;;;;;;;;;2.00;99.90;;;;;;5063919;28;20309;-54
2023/03/06 05:18:17;;;;;;;;;;;2.00;99.90;;;;;;5066064;28;20011;-54
2023/03/06 05:20:43;;;;;;;;;;;2.00;99.90;;;;;;5072019;28;19912;-56
2023/03/06 05:23:08;;;;;;;;;;;2.00;99.90;;;;;;5072763;28;20430;-55
2023/03/06 05:25:34;;;;;;;;;;;2.00;99.90;;;;;;5072301;28;19921;-55
2023/03/06 05:27:59;;;;;;;;;;;2.00;99.90;;;;;;5073536;28;19912;-53
2023/03/06 05:30:25;;;;;;;;;;;2.10;99.90;;;;;;5073670;28;20257;-52
2023/03/06 05:32:50;;;;;;;;;;;2.10;99.90;;;;;;5072802;28;20252;-55
2023/03/06 05:35:19;;;;;;;;;;;2.00;99.90;;;;;;5073191;28;20010;-53
2023/03/06 05:37:45;;;;;;;;;;;2.00;99.90;;;;;;5082663;28;20299;-53
2023/03/06 05:40:11;;;;;;;;;;;1.90;99.90;;;;;;5080140;28;19909;-53
2023/03/06 05:42:36;;;;;;;;;;;1.90;99.90;;;;;;5082603;28;19920;-55
2023/03/06 05:45:03;;;;;;;;;;;1.90;99.90;;;;;;5082079;28;19909;-54
2023/03/06 05:47:29;;;;;;;;;;;1.90;99.90;;;;;;5079326;28;19931;-54
2023/03/06 05:49:54;;;;;;;;;;;1.90;99.90;;;;;;5082605;28;19999;-55
2023/03/06 05:52:20;;;;;;;;;;;1.90;99.90;;;;;;5081692;28;19909;-54
2023/03/06 05:54:48;;;;;;;;;;;1.90;99.90;;;;;;5080476;28;20287;-54
2023/03/06 05:57:13;;;;;;;;;;;1.90;99.90;;;;;;5078580;28;19912;-53
2023/03/06 05:59:39;;;;;;;;;;;1.90;99.90;;;;;;5081697;28;19928;-54
2023/03/06 06:02:04;;;;;;;;;;;1.80;99.90;;;;;;5081321;28;19934;-53
2023/03/06 06:04:30;;;;;;;;;;;1.80;99.90;;;;;;5080527;28;19908;-54
2023/03/06 06:06:57;;;;;;;;;;;1.80;99.90;;;;;;5082258;28;20244;-55
2023/03/06 06:09:22;;;;;;;;;;;1.80;99.90;;;;;;5081153;28;19908;-53
2023/03/06 06:11:58;;;;;;;;;;;1.70;99.90;;;;;;5080464;28;19923;-54
2023/03/06 06:14:24;;;;;;;;;;;1.70;99.90;;;;;;5080635;28;19930;-54
2023/03/06 06:16:49;;;;;;;;;;;1.80;99.90;;;;;;5078206;28;20395;-54
2023/03/06 06:19:19;;;;;;;;;;;1.80;99.90;;;;;;5075091;28;19974;-54
2023/03/06 06:21:51;;;;;;;;;;;1.80;99.90;;;;;;5072015;28;19993;-54
2023/03/06 06:24:18;;;;;;;;;;;1.80;99.90;;;;;;5072254;28;19913;-56
2023/03/06 06:26:43;;;;;;;;;;;1.80;99.90;;;;;;5058474;28;20283;-54
2023/03/06 06:29:09;;;;;;;;;;;1.80;99.90;;;;;;5051784;28;20003;-54
2023/03/06 06:31:35;;;;;;;;;;;1.80;99.90;;;;;;5052777;28;19916;-54
2023/03/06 06:34:01;;;;;;;;;;;1.80;99.90;;;;;;5052691;28;19909;-56
2023/03/06 06:36:27;;;;;;;;;;;1.70;99.90;;;;;;5051927;28;20000;-54
2023/03/06 06:38:52;;;;;;;;;;;1.80;99.90;;;;;;5052442;28;19940;-55
2023/03/06 06:41:18;;;;;;;;;;;1.80;99.90;;;;;;5052414;28;19915;-54
2023/03/06 06:43:43;;;;;;;;;;;1.80;99.90;;;;;;5051845;28;20442;-56
2023/03/06 06:46:09;;;;;;;;;;;1.80;99.90;;;;;;5052392;28;19920;-54
2023/03/06 06:48:36;;;;;;;;;;;1.80;99.90;;;;;;5067265;28;19952;-55
2023/03/06 06:51:02;;;;;;;;;;;1.80;99.90;;;;;;5063428;28;19960;-54
2023/03/06 06:53:27;;;;;;;;;;;1.80;99.90;;;;;;5052183;28;19984;-55
2023/03/06 06:55:53;;;;;;;;;;;1.80;99.90;;;;;;5052474;28;19909;-54
2023/03/06 06:58:18;;;;;;;;;;;1.80;99.90;;;;;;5051417;28;19943;-53
2023/03/06 07:00:44;;;;;;;;;;;1.80;99.90;;;;;;5052530;28;19952;-55
2023/03/06 07:03:11;;;;;;;;;;;1.80;99.90;;;;;;5052360;28;20343;-55
2023/03/06 07:05:36;;;;;;;;;;;1.80;99.90;;;;;;5051510;28;20364;-56
2023/03/06 07:08:02;;;;;;;;;;;1.80;99.90;;;;;;5052062;28;19958;-52
2023/03/06 07:10:28;;;;;;;;;;;1.70;99.90;;;;;;5052243;28;20375;-54
2023/03/06 07:12:55;;;;;;;;;;;1.70;99.90;;;;;;5053144;28;19908;-54
2023/03/06 07:15:21;;;;;;;;;;;1.70;99.90;;;;;;5056198;28;19909;-54
2023/03/06 07:17:47;;;;;;;;;;;1.70;99.90;;;;;;5064608;28;20008;-54
2023/03/06 07:20:12;;;;;;;;;;;1.70;99.90;;;;;;5088017;28;19995;-54
2023/03/06 07:22:38;;;;;;;;;;;1.60;99.90;;;;;;5096294;28;19938;-54
2023/03/06 07:25:04;;;;;;;;;;;1.60;99.90;;;;;;5095649;28;19969;-55
2023/03/06 07:27:30;;;;;;;;;;;1.70;99.90;;;;;;5075505;28;19923;-54
2023/03/06 07:29:55;;;;;;;;;;;1.60;99.90;;;;;;5056308;28;19913;-53
2023/03/06 07:32:21;;;;;;;;;;;1.60;99.90;;;;;;5061190;28;20681;-54
2023/03/06 07:34:47;;;;;;;;;;;1.60;99.90;;;;;;5076164;28;20359;-54
2023/03/06 07:37:12;;;;;;;;;;;1.60;99.90;;;;;;5075656;28;19940;-56
2023/03/06 07:39:38;;;;;;;;;;;1.70;99.90;;;;;;5075041;28;20436;-54
2023/03/06 07:42:03;;;;;;;;;;;1.70;99.90;;;;;;5075679;28;20348;-55
2023/03/06 07:44:29;;;;;;;;;;;1.70;99.90;;;;;;5070034;28;19956;-55
2023/03/06 07:46:54;;;;;;;;;;;1.80;99.90;;;;;;5054836;28;19975;-55
2023/03/06 07:49:20;;;;;;;;;;;1.80;99.90;;;;;;5055525;28;19909;-54
2023/03/06 07:51:45;;;;;;;;;;;1.80;99.90;;;;;;5055375;28;20328;-56
2023/03/06 07:54:11;;;;;;;;;;;1.80;99.90;;;;;;5054663;28;19963;-53
2023/03/06 07:56:36;;;;;;;;;;;1.80;99.90;;;;;;5072958;28;19912;-52
2023/03/06 07:59:02;;;;;;;;;;;1.80;99.90;;;;;;5067510;28;19921;-54
2023/03/06 08:01:27;;;;;;;;;;;1.80;99.90;;;;;;5056564;28;20363;-54
2023/03/06 08:03:53;;;;;;;;;;;1.80;99.90;;;;;;5055264;28;19971;-54
2023/03/06 08:06:20;;;;;;;;;;;1.90;99.90;;;;;;5055212;28;19952;-55
2023/03/06 08:08:46;;;;;;;;;;;1.90;99.90;;;;;;5054522;28;19916;-54
2023/03/06 08:11:13;;;;;;;;;;;2.00;99.90;;;;;;5055191;28;19920;-54
2023/03/06 08:13:39;;;;;;;;;;;2.00;99.90;;;;;;5055085;28;19962;-53
2023/03/06 08:16:05;;;;;;;;;;;2.10;99.90;;;;;;5054319;28;20292;-53
2023/03/06 08:18:31;;;;;;;;;;;2.10;99.90;;;;;;5074794;28;19912;-55
2023/03/06 08:21:00;;;;;;;;;;;2.20;99.90;;;;;;5082876;28;20061;-52
2023/03/06 08:23:25;;;;;;;;;;;2.20;99.90;;;;;;5079463;28;19908;-55
2023/03/06 08:26:10;;;;;;;;;;;2.30;99.90;;;;;;5082590;28;19954;-54
2023/03/06 08:28:36;;;;;;;;;;;2.30;99.90;;;;;;5078883;28;20020;-54
2023/03/06 08:31:12;;;;;;;;;;;2.50;99.90;;;;;;5079280;28;19985;-54
2023/03/06 08:33:38;;;;;;;;;;;2.60;99.90;;;;;;5084448;28;20382;-54
2023/03/06 08:36:04;;;;;;;;;;;2.80;99.90;;;;;;5079011;28;19930;-52
2023/03/06 08:38:29;;;;;;;;;;;2.90;99.90;;;;;;5083261;28;20267;-56
2023/03/06 08:40:55;;;;;;;;;;;3.00;99.90;;;;;;5082634;28;20428;-54
2023/03/06 08:43:20;;;;;;;;;;;3.20;99.90;;;;;;5083273;28;19915;-53
2023/03/06 08:45:56;;;;;;;;;;;3.30;99.90;;;;;;5082662;28;19942;-55
2023/03/06 08:48:21;;;;;;;;;;;3.40;99.90;;;;;;5083738;28;20000;-55
2023/03/06 08:50:47;;;;;;;;;;;3.40;99.90;;;;;;5081954;28;19943;-55
2023/03/06 08:53:12;;;;;;;;;;;3.40;99.90;;;;;;5082511;28;19912;-53
2023/03/06 08:55:38;;;;;;;;;;;3.40;99.90;;;;;;5084001;28;19915;-53
2023/03/06 08:58:03;;;;;;;;;;;3.50;99.90;;;;;;5081013;28;19909;-53
2023/03/06 09:00:29;;;;;;;;;;;3.50;99.90;;;;;;5083268;28;19962;-54
2023/03/06 09:02:55;;;;;;;;;;;3.60;99.90;;;;;;5083465;28;19919;-54
2023/03/06 09:05:20;;;;;;;;;;;3.60;99.90;;;;;;5080707;28;19919;-55
2023/03/06 09:07:46;;;;;;;;;;;3.70;99.90;;;;;;5077709;28;19913;-54
2023/03/06 09:10:15;;;;;;;;;;;3.80;99.90;;;;;;5074450;28;19913;-52
2023/03/06 09:12:40;;;;;;;;;;;3.90;99.90;;;;;;5076207;28;19908;-56
2023/03/06 09:15:06;;;;;;;;;;;4.00;99.90;;;;;;5079678;28;19939;-53
2023/03/06 09:17:32;;;;;;;;;;;4.00;99.90;;;;;;5072640;28;19955;-53
2023/03/06 09:19:57;;;;;;;;;;;4.10;99.90;;;;;;5077882;28;19967;-54
2023/03/06 09:22:23;;;;;;;;;;;4.20;99.90;;;;;;5081725;28;19912;-53
2023/03/06 09:24:48;;;;;;;;;;;4.30;99.90;;;;;;5073016;28;20339;-53
2023/03/06 09:27:15;;;;;;;;;;;4.40;99.90;;;;;;5069794;28;19971;-55
2023/03/06 09:29:40;;;;;;;;;;;4.30;99.90;;;;;;5053614;28;19909;-56
2023/03/06 09:32:06;;;;;;;;;;;4.40;99.90;;;;;;5058252;28;19916;-53
2023/03/06 09:34:31;;;;;;;;;;;4.40;99.90;;;;;;5073520;28;20008;-54
2023/03/06 09:36:57;;;;;;;;;;;4.30;99.90;;;;;;5071440;28;19958;-55
2023/03/06 09:39:22;;;;;;;;;;;4.50;99.90;;;;;;5062792;28;19920;-54
2023/03/06 09:41:48;;;;;;;;;;;4.50;99.90;;;;;;5071769;28;19909;-56
2023/03/06 09:44:15;;;;;;;;;;;4.60;99.90;;;;;;5053314;28;19908;-53
2023/03/06 09:46:56;;;;;;;;;;;4.80;99.90;;;;;;5052436;28;19923;-54
2023/03/06 09:49:37;;;;;;;;;;;4.70;99.90;;;;;;5061953;28;19909;-55
2023/03/06 09:52:02;;;;;;;;;;;4.80;99.90;;;;;;5059688;28;19920;-57
2023/03/06 09:54:45;;;;;;;;;;;4.80;99.90;;;;;;5053626;28;19909;-55
2023/03/06 09:57:21;;;;;;;;;;;4.80;99.90;;;;;;5054045;28;19963;-55
2023/03/06 09:59:49;;;;;;;;;;;4.80;99.90;;;;;;5052964;28;19948;-58
2023/03/06 10:02:18;;;;;;;;;;;4.70;99.90;;;;;;5060461;28;19959;-53
2023/03/06 10:04:47;;;;;;;;;;;4.80;99.90;;;;;;5052406;28;20336;-54
2023/03/06 10:07:14;;;;;;;;;;;4.70;99.90;;;;;;5056342;28;20003;-58
2023/03/06 10:09:42;;;;;;;;;;;4.90;99.90;;;;;;5052571;28;20007;-56
2023/03/06 10:12:22;;;;;;;;;;;5.00;99.90;;;;;;5053099;28;19909;-55
2023/03/06 10:15:06;;;;;;;;;;;5.10;99.90;;;;;;5057701;28;19916;-65
2023/03/06 10:17:36;;;;;;;;;;;5.30;99.90;;;;;;5066984;28;20310;-54
2023/03/06 10:20:08;;;;;;;;;;;5.50;99.90;;;;;;5061601;28;19913;-57
2023/03/06 10:22:56;;;;;;;;;;;5.70;99.90;;;;;;5064608;28;19908;-54
2023/03/06 10:25:29;;;;;;;;;;;5.80;99.90;;;;;;5045878;28;20014;-54
2023/03/06 10:28:02;;;;;;;;;;;6.00;99.90;;;;;;5051457;28;19915;-53
2023/03/06 10:30:27;;;;;;;;;;;6.10;99.90;;;;;;5060517;28;19913;-59
2023/03/06 10:32:57;;;;;;;;;;;6.10;99.90;;;;;;5059614;28;19919;-55
2023/03/06 10:35:41;;;;;;;;;;;6.20;99.90;;;;;;5079562;28;20024;-57
2023/03/06 10:38:14;;;;;;;;;;;6.30;99.90;;;;;;5051070;28;19962;-56
2023/03/06 10:40:49;;;;;;;;;;;6.50;99.90;;;;;;5062918;28;20318;-54
2023/03/06 10:43:15;;;;;;;;;;;6.50;99.90;;;;;;5052905;28;19908;-54
2023/03/06 10:45:48;;;;;;;;;;;6.60;99.90;;;;;;5054073;28;20513;-56
2023/03/06 10:48:17;;;;;;;;;;;6.80;99.90;;;;;;5055368;28;20280;-55
2023/03/06 10:50:42;;;;;;;;;;;6.70;99.90;;;;;;5056294;28;19909;-58
2023/03/06 10:53:15;;;;;;;;;;;6.70;99.90;;;;;;5075841;28;19909;-55
2023/03/06 10:55:49;;;;;;;;;;;6.70;99.90;;;;;;5077348;28;19913;-55
2023/03/06 10:58:16;;;;;;;;;;;6.90;99.90;;;;;;5058701;28;19995;-55
2023/03/06 11:00:42;;;;;;;;;;;7.00;99.90;;;;;;5057325;28;19955;-56
2023/03/06 11:03:10;;;;;;;;;;;7.00;99.90;;;;;;5056742;28;19951;-55
2023/03/06 11:05:36;;;;;;;;;;;6.90;97.10;;;;;;5067327;28;19924;-53
2023/03/06 11:08:01;;;;;;;;;;;6.60;94.00;;;;;;5060182;28;19959;-55
2023/03/06 11:10:28;;;;;;;;;;;6.60;98.50;;;;;;5056332;28;20277;-55
2023/03/06 11:12:56;;;;;;;;;;;6.60;99.70;;;;;;5056878;28;19909;-55
2023/03/06 11:15:23;;;;;;;;;;;6.70;99.90;;;;;;5067371;28;20368;-58
2023/03/06 11:18:23;;;;;;;;;;;6.80;97.50;;;;;;5068306;28;19908;-55
2023/03/06 11:20:50;;;;;;;;;;;6.80;99.90;;;;;;5061734;28;20077;-57
2023/03/06 11:23:15;;;;;;;;;;;6.90;92.10;;;;;;5056675;28;20344;-56
2023/03/06 11:25:55;;;;;;;;;;;7.10;95.80;;;;;;5067372;28;19924;-55
2023/03/06 11:28:27;;;;;;;;;;;7.40;92.20;;;;;;5056700;28;20314;-55
2023/03/06 11:30:59;;;;;;;;;;;7.40;85.60;;;;;;5057408;28;20015;-55
2023/03/06 11:33:27;;;;;;;;;;;7.50;92.30;;;;;;5060136;28;20482;-54
2023/03/06 11:36:11;;;;;;;;;;;7.50;88.80;;;;;;5056092;28;19954;-55
2023/03/06 11:38:50;;;;;;;;;;;7.40;92.10;;;;;;5064850;28;19917;-54
2023/03/06 11:41:24;;;;;;;;;;;7.10;91.20;;;;;;5063478;28;19913;-55
2023/03/06 11:44:02;;;;;;;;;;;6.80;90.30;;;;;;5059945;28;19913;-54
2023/03/06 11:46:33;;;;;;;;;;;6.60;90.30;;;;;;5055741;28;19917;-56
2023/03/06 11:49:12;;;;;;;;;;;6.40;91.90;;;;;;5056349;28;19913;-55
2023/03/06 11:51:48;;;;;;;;;;;6.30;90.60;;;;;;5060365;28;19913;-55
2023/03/06 11:54:14;;;;;;;;;;;6.30;91.30;;;;;;5055550;28;19913;-56
2023/03/06 11:56:56;;;;;;;;;;;6.20;92.10;;;;;;5063349;28;19935;-56
2023/03/06 11:59:35;;;;;;;;;;;6.20;92.30;;;;;;5064082;28;19925;-55
2023/03/06 12:02:03;;;;;;;;;;;6.20;92.10;;;;;;5056232;28;19913;-57
2023/03/06 12:04:29;;;;;;;;;;;6.40;92.10;;;;;;5055406;28;19909;-56
2023/03/06 12:07:13;;;;;;;;;;;6.50;91.10;;;;;;5058424;28;20248;-54
2023/03/06 12:09:57;;;;;;;;;;;6.60;92.40;;;;;;5064644;28;19908;-55
2023/03/06 12:12:28;;;;;;;;;;;6.70;91.00;;;;;;5059519;28;19913;-53
2023/03/06 12:15:02;;;;;;;;;;;6.80;91.40;;;;;;5056402;28;20011;-54
2023/03/06 12:17:49;;;;;;;;;;;6.80;91.70;;;;;;5063424;28;20011;-55
2023/03/06 12:20:33;;;;;;;;;;;6.70;88.90;;;;;;5055008;28;19916;-57
2023/03/06 12:23:08;;;;;;;;;;;6.80;90.80;;;;;;5054944;28;19987;-54
2023/03/06 12:25:41;;;;;;;;;;;6.90;90.90;;;;;;5054876;28;19909;-54
2023/03/06 12:28:10;;;;;;;;;;;7.00;93.70;;;;;;5054136;28;19923;-55
2023/03/06 12:30:35;;;;;;;;;;;7.10;88.40;;;;;;5054879;28;19909;-55
2023/03/06 12:33:06;;;;;;;;;;;7.10;90.80;;;;;;5054706;28;19996;-56
2023/03/06 12:35:32;;;;;;;;;;;7.00;91.40;;;;;;5054107;28;19908;-59
2023/03/06 12:38:02;;;;;;;;;;;7.00;89.90;;;;;;5066841;28;19915;-56
2023/03/06 12:40:38;;;;;;;;;;;7.20;90.90;;;;;;5054652;28;19991;-56
2023/03/06 12:43:22;;;;;;;;;;;7.30;82.60;;;;;;5065907;28;19908;-55
2023/03/06 12:45:49;;;;;;;;;;;7.40;85.00;;;;;;5074550;28;19924;-56
2023/03/06 12:48:19;;;;;;;;;;;7.30;75.40;;;;;;5070002;28;19935;-56
2023/03/06 12:50:46;;;;;;;;;;;7.20;81.60;;;;;;5061902;28;19912;-55
2023/03/06 12:53:14;;;;;;;;;;;7.10;83.90;;;;;;5066346;28;19921;-55
2023/03/06 12:55:44;;;;;;;;;;;7.00;90.10;;;;;;5053745;28;19909;-56
2023/03/06 12:58:28;;;;;;;;;;;6.80;81.90;;;;;;5066906;28;19913;-55
2023/03/06 13:00:55;;;;;;;;;;;6.80;81.10;;;;;;5074925;28;19912;-56
2023/03/06 13:03:25;;;;;;;;;;;6.80;79.20;;;;;;5062940;28;19908;-55
2023/03/06 13:06:00;;;;;;;;;;;6.80;86.00;;;;;;5054646;28;19921;-57
2023/03/06 13:08:51;;;;;;;;;;;6.80;80.50;;;;;;5054612;28;19913;-56
2023/03/06 13:11:23;;;;;;;;;;;6.80;88.00;;;;;;5053260;28;20252;-55
2023/03/06 13:13:48;;;;;;;;;;;6.80;88.80;;;;;;5054007;28;20431;-54
2023/03/06 13:16:17;;;;;;;;;;;6.80;87.40;;;;;;5053935;28;19996;-56
2023/03/06 13:18:42;;;;;;;;;;;6.70;81.90;;;;;;5053096;28;19991;-56
2023/03/06 13:21:37;;;;;;;;;;;6.80;84.70;;;;;;5063225;28;20447;-55
2023/03/06 13:24:04;;;;;;;;;;;6.80;81.90;;;;;;4999886;28;19922;-55
2023/03/06 13:26:29;;;;;;;;;;;6.90;82.20;;;;;;5059256;28;19916;-54
2023/03/06 13:28:56;;;;;;;;;;;7.00;84.60;;;;;;5058137;28;20264;-55
2023/03/06 13:31:26;;;;;;;;;;;7.10;83.30;;;;;;5056510;28;19936;-55
2023/03/06 13:34:03;;;;;;;;;;;7.00;81.50;;;;;;5068541;28;19920;-56
2023/03/06 13:36:35;;;;;;;;;;;7.20;79.00;;;;;;5076058;28;19932;-56
2023/03/06 13:39:04;;;;;;;;;;;7.50;81.10;;;;;;5065885;28;19912;-56
2023/03/06 13:41:30;;;;;;;;;;;7.70;88.70;;;;;;5068768;28;19909;-55
2023/03/06 13:43:56;;;;;;;;;;;7.70;76.70;;;;;;5060224;28;19931;-55
2023/03/06 13:46:26;;;;;;;;;;;7.80;86.70;;;;;;5060789;28;19928;-55
2023/03/06 13:49:06;;;;;;;;;;;8.00;77.40;;;;;;5064506;28;19908;-56
2023/03/06 13:51:34;;;;;;;;;;;8.10;74.60;;;;;;5054017;28;19909;-56
2023/03/06 13:54:07;;;;;;;;;;;8.40;74.60;;;;;;5053265;28;19948;-56
2023/03/06 13:56:50;;;;;;;;;;;8.70;76.30;;;;;;5060336;28;19952;-58
2023/03/06 13:59:16;;;;;;;;;;;8.60;68.10;;;;;;5057161;28;19921;-55
2023/03/06 14:01:50;;;;;;;;;;;8.60;68.40;;;;;;5053038;28;19920;-56
2023/03/06 14:04:27;;;;;;;;;;;8.40;65.80;;;;;;5053775;28;19909;-56
2023/03/06 14:07:00;;;;;;;;;;;8.50;67.00;;;;;;5053079;28;19917;-55
2023/03/06 14:09:25;;;;;;;;;;;8.50;66.20;;;;;;5053384;28;19909;-56
2023/03/06 14:11:57;;;;;;;;;;;8.50;67.20;;;;;;5053758;28;19909;-55
2023/03/06 14:14:37;;;;;;;;;;;8.30;62.20;;;;;;5053082;28;19966;-55
2023/03/06 14:17:02;;;;;;;;;;;8.10;65.20;;;;;;5061721;28;19963;-55
2023/03/06 14:19:30;;;;;;;;;;;8.00;67.00;;;;;;5054497;28;19956;-55
2023/03/06 14:21:56;;;;;;;;;;;7.90;71.30;;;;;;5053209;28;19912;-54
2023/03/06 14:24:33;;;;;;;;;;;7.80;68.40;;;;;;5054873;28;20279;-55
2023/03/06 14:26:58;;;;;;;;;;;7.70;70.80;;;;;;5054268;28;19982;-55
2023/03/06 14:29:25;;;;;;;;;;;7.50;68.20;;;;;;5062271;28;20375;-54
2023/03/06 14:31:55;;;;;;;;;;;7.50;67.50;;;;;;5055764;28;19995;-54
2023/03/06 14:34:28;;;;;;;;;;;7.50;68.30;;;;;;5052723;28;20283;-55
2023/03/06 14:36:54;;;;;;;;;;;7.50;70.10;;;;;;5060932;28;20378;-55